createdAt,value
2023-04-17T00:00:00.737Z,7.2
2023-04-17T00:05:00.770Z,7.6
2023-04-17T00:10:00.496Z,5.0
2023-04-17T00:15:00.478Z,4.7
2023-04-17T00:20:00.515Z,5.0
2023-04-17T00:25:00.472Z,4.7
2023-04-17T00:30:00.501Z,5.8
2023-04-17T00:35:00.482Z,5.0
2023-04-17T00:40:00.476Z,7.2
2023-04-17T00:45:00.492Z,7.2
2023-04-17T00:50:00.482Z,6.5
2023-04-17T00:55:00.968Z,6.5
2023-04-17T01:00:00.507Z,5.4
2023-04-17T01:05:00.535Z,9.4
2023-04-17T01:10:00.637Z,6.5
2023-04-17T01:15:00.492Z,8.6
2023-04-17T01:20:00.484Z,7.2
2023-04-17T01:25:00.590Z,5.0
2023-04-17T01:30:00.503Z,4.7
2023-04-17T01:35:00.483Z,4.7
2023-04-17T01:40:00.485Z,6.5
2023-04-17T01:45:00.550Z,7.6
2023-04-17T01:50:00.444Z,5.4
2023-04-17T01:55:00.477Z,5.8
2023-04-17T02:00:00.618Z,6.1
2023-04-17T02:05:00.471Z,4.7
2023-04-17T02:10:00.487Z,6.1
2023-04-17T02:15:00.503Z,7.2
2023-04-17T02:20:00.474Z,6.1
2023-04-17T02:25:00.448Z,7.2
2023-04-17T02:30:00.545Z,7.9
2023-04-17T02:35:00.428Z,6.1
2023-04-17T02:40:00.486Z,7.9
2023-04-17T02:45:00.486Z,11.2
2023-04-17T02:50:00.597Z,5.0
2023-04-17T02:55:00.493Z,2.5
2023-04-17T03:00:00.475Z,5.4
2023-04-17T03:05:00.480Z,3.2
2023-04-17T03:10:00.493Z,4.7
2023-04-17T03:15:00.488Z,4.7
2023-04-17T03:20:00.492Z,5.0
2023-04-17T03:25:00.566Z,4.7
2023-04-17T03:30:00.520Z,5.4
2023-04-17T03:35:00.471Z,4.0
2023-04-17T03:40:00.599Z,4.3
2023-04-17T03:45:00.495Z,5.8
2023-04-17T03:50:00.535Z,5.8
2023-04-17T03:55:00.555Z,4.3
2023-04-17T04:00:00.494Z,5.0
2023-04-17T04:05:00.761Z,3.6
2023-04-17T04:10:00.458Z,3.2
2023-04-17T04:15:00.475Z,4.7
2023-04-17T04:20:00.477Z,4.3
2023-04-17T04:25:00.438Z,5.0
2023-04-17T04:30:00.536Z,4.0
2023-04-17T04:35:00.429Z,4.0
2023-04-17T04:40:00.468Z,4.7
2023-04-17T04:45:00.470Z,4.0
2023-04-17T04:50:00.483Z,6.5
2023-04-17T04:55:00.442Z,5.4
2023-04-17T05:00:00.567Z,7.2
2023-04-17T05:05:01.013Z,7.6
2023-04-17T05:10:00.471Z,7.6
2023-04-17T05:15:00.492Z,5.0
2023-04-17T05:20:00.551Z,10.4
2023-04-17T05:25:00.455Z,6.5
2023-04-17T05:30:00.499Z,9.0
2023-04-17T05:35:00.691Z,5.8
2023-04-17T05:40:00.632Z,8.3
2023-04-17T05:45:00.507Z,8.3
2023-04-17T05:50:00.478Z,6.5
2023-04-17T05:55:00.502Z,9.4
2023-04-17T06:00:00.541Z,9.7
2023-04-17T06:05:01.500Z,8.3
2023-04-17T06:10:00.543Z,10.1
2023-04-17T06:15:00.542Z,10.1
2023-04-17T06:20:00.524Z,13.7
2023-04-17T06:25:00.495Z,10.8
2023-04-17T06:30:00.520Z,9.0
2023-04-17T06:35:00.550Z,8.3
2023-04-17T06:40:00.536Z,11.5
2023-04-17T06:45:00.548Z,13.3
2023-04-17T06:50:00.480Z,11.9
2023-04-17T06:55:00.500Z,15.5
2023-04-17T07:00:00.492Z,11.9
2023-04-17T07:05:00.495Z,10.8
2023-04-17T07:10:00.599Z,7.6
2023-04-17T07:15:00.507Z,12.2
2023-04-17T07:20:00.551Z,11.5
2023-04-17T07:25:00.497Z,4.3
2023-04-17T07:30:00.549Z,9.7
2023-04-17T07:35:00.501Z,6.8
2023-04-17T07:40:00.610Z,7.2
2023-04-17T07:45:00.496Z,9.0
2023-04-17T07:50:00.701Z,6.1
2023-04-17T07:55:00.525Z,8.3
2023-04-17T08:00:00.600Z,7.6
2023-04-17T08:05:01.005Z,13.7
2023-04-17T08:10:00.558Z,7.9
2023-04-17T08:15:00.582Z,11.2
2023-04-17T08:20:00.560Z,12.2
2023-04-17T08:25:00.550Z,16.6
2023-04-17T08:30:00.569Z,16.2
2023-04-17T08:35:00.632Z,15.1
2023-04-17T08:40:00.574Z,14.4
2023-04-17T08:45:03.807Z,6.1
2023-04-17T08:50:00.477Z,10.1
2023-04-17T08:55:00.585Z,14.4
2023-04-17T09:00:00.529Z,10.1
2023-04-17T09:05:01.119Z,15.8
2023-04-17T09:10:00.573Z,14.4
2023-04-17T09:15:00.504Z,15.8
2023-04-17T09:20:00.498Z,14.4
2023-04-17T09:30:00.771Z,11.9
2023-04-17T09:35:00.755Z,12.6
2023-04-17T09:40:00.787Z,21.6
2023-04-17T09:45:00.728Z,15.1
2023-04-17T09:50:00.798Z,14.8
2023-04-17T09:55:00.728Z,13.7
2023-04-17T10:00:00.889Z,11.5
2023-04-17T10:05:00.814Z,19.4
2023-04-17T10:10:00.781Z,16.2
2023-04-17T10:15:00.789Z,17.3
2023-04-17T10:20:00.713Z,13.3
2023-04-17T10:25:00.748Z,15.8
2023-04-17T10:30:00.824Z,14.0
2023-04-17T10:35:00.857Z,13.0
2023-04-17T10:40:00.835Z,14.8
2023-04-17T10:45:00.741Z,14.8
2023-04-17T10:50:00.880Z,14.8
2023-04-17T10:55:00.765Z,16.6
2023-04-17T11:00:00.823Z,17.3
2023-04-17T11:05:00.843Z,12.6
2023-04-17T11:10:00.761Z,14.8
2023-04-17T11:15:00.741Z,16.2
2023-04-17T11:20:00.790Z,18.0
2023-04-17T11:25:00.705Z,10.4
2023-04-17T11:30:00.800Z,8.6
2023-04-17T11:35:00.794Z,15.5
2023-04-17T11:40:00.796Z,15.8
2023-04-17T11:45:04.871Z,13.7
2023-04-17T11:50:00.771Z,13.7
2023-04-17T11:55:00.782Z,13.3
2023-04-17T12:00:00.799Z,15.5
2023-04-17T12:05:01.339Z,16.9
2023-04-17T12:10:00.791Z,11.9
2023-04-17T12:15:00.784Z,15.5
2023-04-17T12:20:00.731Z,15.5
2023-04-17T12:25:00.778Z,16.6
2023-04-17T12:30:00.746Z,16.9
2023-04-17T12:35:00.733Z,15.8
2023-04-17T12:40:00.757Z,21.6
2023-04-17T12:45:00.758Z,22.7
2023-04-17T12:50:00.764Z,20.2
2023-04-17T12:55:00.772Z,18.7
2023-04-17T13:00:00.789Z,15.8
2023-04-17T13:05:00.872Z,14.8
2023-04-17T13:10:00.770Z,11.5
2023-04-17T13:15:00.744Z,9.7
2023-04-17T13:20:00.737Z,13.3
2023-04-17T13:25:00.745Z,14.0
2023-04-17T13:30:00.767Z,16.6
2023-04-17T13:35:00.823Z,14.4
2023-04-17T13:40:00.721Z,11.5
2023-04-17T13:50:00.628Z,14.4
2023-04-17T13:55:00.523Z,14.8
2023-04-17T14:00:00.544Z,15.5
2023-04-17T14:05:01.041Z,14.0
2023-04-17T14:10:00.615Z,12.2
2023-04-17T14:15:00.555Z,17.3
2023-04-17T14:20:00.597Z,13.7
2023-04-17T14:25:00.545Z,9.7
2023-04-17T14:30:01.969Z,6.8
2023-04-17T14:35:00.630Z,8.3
2023-04-17T14:40:00.684Z,8.6
2023-04-17T14:45:00.648Z,10.1
2023-04-17T14:50:00.747Z,8.3
2023-04-17T14:55:00.590Z,8.3
2023-04-17T15:00:00.778Z,8.3
2023-04-17T15:05:00.550Z,6.8
2023-04-17T15:10:01.011Z,14.8
2023-04-17T15:15:00.530Z,13.0
2023-04-17T15:20:00.578Z,16.6
2023-04-17T15:25:00.533Z,9.4
2023-04-17T15:30:00.598Z,7.2
2023-04-17T15:35:00.517Z,15.5
2023-04-17T15:40:00.578Z,5.8
2023-04-17T15:45:00.537Z,13.7
2023-04-17T15:50:00.592Z,14.8
2023-04-17T15:55:00.555Z,8.3
2023-04-17T16:00:00.571Z,15.8
2023-04-17T16:05:00.520Z,11.9
2023-04-17T16:10:00.527Z,14.8
2023-04-17T16:15:00.529Z,12.2
2023-04-17T16:20:00.521Z,14.8
2023-04-17T16:25:00.545Z,7.2
2023-04-17T16:30:00.624Z,7.9
2023-04-17T16:35:00.640Z,8.6
2023-04-17T16:40:00.612Z,9.4
2023-04-17T16:45:00.644Z,8.3
2023-04-17T16:50:00.559Z,6.1
2023-04-17T16:55:00.536Z,5.0
2023-04-17T17:00:00.558Z,7.2
2023-04-17T17:05:00.503Z,11.5
2023-04-17T17:10:00.559Z,12.2
2023-04-17T17:15:00.499Z,9.4
2023-04-17T17:20:00.600Z,7.2
2023-04-17T17:25:00.721Z,8.3
2023-04-17T17:30:01.089Z,5.4
2023-04-17T17:35:00.542Z,5.8
2023-04-17T17:40:00.579Z,7.9
2023-04-17T17:45:00.610Z,7.9
2023-04-17T17:50:00.530Z,9.4
2023-04-17T17:55:00.509Z,11.2
2023-04-17T18:00:00.657Z,13.7
2023-04-17T18:05:00.743Z,7.2
2023-04-17T18:10:00.541Z,11.2
2023-04-17T18:15:00.515Z,7.6
2023-04-17T18:20:00.566Z,11.9
2023-04-17T18:25:00.540Z,13.3
2023-04-17T18:30:00.553Z,6.1
2023-04-17T18:35:00.567Z,6.1
2023-04-17T18:40:00.533Z,6.1
2023-04-17T18:45:00.522Z,9.4
2023-04-17T18:50:00.673Z,5.8
2023-04-17T18:55:00.522Z,9.0
2023-04-17T19:00:00.520Z,10.8
2023-04-17T19:05:00.671Z,9.4
2023-04-17T19:10:00.654Z,7.6
2023-04-17T19:15:00.456Z,10.1
2023-04-17T19:20:00.658Z,12.6
2023-04-17T19:25:00.512Z,9.4
2023-04-17T19:30:00.807Z,10.8
2023-04-17T19:35:00.519Z,9.0
2023-04-17T19:40:14.575Z,7.6
2023-04-17T19:45:00.518Z,13.3
2023-04-17T19:50:00.618Z,6.5
2023-04-17T19:55:00.534Z,6.1
2023-04-17T20:00:00.533Z,9.7
2023-04-17T20:05:00.515Z,11.5
2023-04-17T20:10:00.713Z,6.8
2023-04-17T20:15:00.499Z,9.7
2023-04-17T20:20:00.584Z,8.6
2023-04-17T20:25:00.531Z,10.4
2023-04-17T20:30:00.653Z,16.2
2023-04-17T20:35:00.516Z,9.4
2023-04-17T20:40:00.533Z,10.4
2023-04-17T20:45:00.515Z,6.8
2023-04-17T20:50:00.558Z,8.3
2023-04-17T20:55:00.516Z,9.4
2023-04-17T21:00:00.518Z,7.9
2023-04-17T21:05:00.541Z,9.7
2023-04-17T21:10:00.587Z,10.4
2023-04-17T21:15:00.502Z,7.9
2023-04-17T21:20:00.556Z,9.0
2023-04-17T21:25:00.504Z,9.7
2023-04-17T21:30:00.529Z,12.2
2023-04-17T21:35:00.525Z,15.8
2023-04-17T21:40:00.587Z,12.6
2023-04-17T21:45:00.531Z,11.5
2023-04-17T21:50:00.704Z,14.4
2023-04-17T21:55:00.521Z,11.2
2023-04-17T22:00:00.589Z,15.8
2023-04-17T22:05:00.655Z,14.4
2023-04-17T22:10:00.554Z,16.9
2023-04-17T22:15:00.516Z,16.2
2023-04-17T22:20:00.542Z,17.6
2023-04-17T22:25:00.601Z,16.2
2023-04-17T22:30:00.596Z,9.7
2023-04-17T22:35:00.553Z,16.2
2023-04-17T22:40:00.545Z,15.1
2023-04-17T22:45:00.557Z,15.1
2023-04-17T22:50:00.544Z,8.6
2023-04-17T22:55:00.500Z,9.4
2023-04-17T23:00:00.576Z,12.2
2023-04-17T23:05:00.743Z,9.7
2023-04-17T23:10:00.570Z,15.5
2023-04-17T23:15:00.523Z,10.1
2023-04-17T23:20:00.547Z,7.6
2023-04-17T23:25:00.582Z,9.7
2023-04-17T23:30:00.543Z,7.9
2023-04-17T23:35:00.502Z,10.1
2023-04-17T23:40:00.539Z,13.3
2023-04-17T23:45:00.544Z,9.4
2023-04-17T23:50:00.613Z,7.2
2023-04-17T23:55:00.545Z,9.4
